createdAt,value
2022-09-20T00:00:47.850Z,7.28
2022-09-20T00:03:15.453Z,7.31
2022-09-20T00:05:45.260Z,7.40
2022-09-20T00:08:15.418Z,7.42
2022-09-20T00:10:42.907Z,7.42
2022-09-20T00:13:12.477Z,7.47
2022-09-20T00:15:44.325Z,7.47
2022-09-20T00:18:11.428Z,7.50
2022-09-20T00:20:48.595Z,7.63
2022-09-20T00:23:15.537Z,7.66
2022-09-20T00:25:43.128Z,7.44
2022-09-20T00:28:10.805Z,7.75
2022-09-20T00:30:37.607Z,7.73
2022-09-20T00:33:04.180Z,7.77
2022-09-20T00:35:31.155Z,7.75
2022-09-20T00:37:57.686Z,7.82
2022-09-20T00:40:27.073Z,7.84
2022-09-20T00:42:53.895Z,7.79
2022-09-20T00:45:24.438Z,7.83
2022-09-20T00:48:29.035Z,7.86
2022-09-20T00:51:06.012Z,7.80
2022-09-20T00:53:37.954Z,7.86
2022-09-20T00:56:06.837Z,7.90
2022-09-20T00:58:37.907Z,7.95
2022-09-20T01:01:05.739Z,7.92
2022-09-20T01:03:35.515Z,7.90
2022-09-20T01:06:08.043Z,7.87
2022-09-20T01:08:36.378Z,7.88
2022-09-20T01:11:03.230Z,7.79
2022-09-20T01:13:29.757Z,7.84
2022-09-20T01:15:58.997Z,7.80
2022-09-20T01:18:27.345Z,7.75
2022-09-20T01:20:54.863Z,7.86
2022-09-20T01:23:36.610Z,7.88
2022-09-20T01:26:27.591Z,7.82
2022-09-20T01:29:13.106Z,7.75
2022-09-20T01:31:52.554Z,7.86
2022-09-20T01:34:31.416Z,7.82
2022-09-20T01:37:24.679Z,7.85
2022-09-20T01:40:11.601Z,7.69
2022-09-20T01:42:42.691Z,7.73
2022-09-20T01:45:21.305Z,7.64
2022-09-20T01:48:04.459Z,7.56
2022-09-20T01:50:56.812Z,7.44
2022-09-20T01:53:32.433Z,7.47
2022-09-20T01:56:29.818Z,7.40
2022-09-20T01:59:24.148Z,7.41
2022-09-20T02:01:54.238Z,7.41
2022-09-20T02:04:40.608Z,7.43
2022-09-20T02:07:39.100Z,7.44
2022-09-20T02:10:27.289Z,7.42
2022-09-20T02:13:00.543Z,7.35
2022-09-20T02:15:51.796Z,7.44
2022-09-20T02:18:24.897Z,7.44
2022-09-20T02:21:29.867Z,7.45
2022-09-20T02:24:27.407Z,7.46
2022-09-20T02:27:02.970Z,7.47
2022-09-20T02:29:44.613Z,7.45
2022-09-20T02:32:39.290Z,7.44
2022-09-20T02:35:17.609Z,7.31
2022-09-20T02:38:05.395Z,7.39
2022-09-20T02:40:50.521Z,7.43
2022-09-20T02:43:47.573Z,7.34
2022-09-20T02:46:35.776Z,7.44
2022-09-20T02:49:31.633Z,7.47
2022-09-20T02:52:04.751Z,7.46
2022-09-20T02:54:46.101Z,7.46
2022-09-20T02:57:36.449Z,7.54
2022-09-20T03:00:09.722Z,7.51
2022-09-20T03:02:51.762Z,7.48
2022-09-20T03:05:27.526Z,7.49
2022-09-20T03:08:35.050Z,7.47
2022-09-20T03:11:07.302Z,7.43
2022-09-20T03:13:47.152Z,7.46
2022-09-20T03:16:35.055Z,7.51
2022-09-20T03:19:20.241Z,7.44
2022-09-20T03:22:01.064Z,7.34
2022-09-20T03:24:46.486Z,7.46
2022-09-20T03:27:39.714Z,7.42
2022-09-20T03:30:41.531Z,7.39
2022-09-20T03:33:31.164Z,7.33
2022-09-20T03:36:25.617Z,7.36
2022-09-20T03:38:55.182Z,7.32
2022-09-20T03:41:43.087Z,7.30
2022-09-20T03:44:27.096Z,7.32
2022-09-20T03:47:23.982Z,7.26
2022-09-20T03:50:09.227Z,7.21
2022-09-20T03:53:06.911Z,7.21
2022-09-20T03:55:57.699Z,7.17
2022-09-20T03:58:50.532Z,7.20
2022-09-20T04:01:38.632Z,7.22
2022-09-20T04:04:22.786Z,7.23
2022-09-20T04:07:32.984Z,7.26
2022-09-20T04:10:03.293Z,7.27
2022-09-20T04:13:00.535Z,7.26
2022-09-20T04:16:01.233Z,7.27
2022-09-20T04:18:44.054Z,7.31
2022-09-20T04:21:33.823Z,7.28
2022-09-20T04:24:13.164Z,7.25
2022-09-20T04:26:51.753Z,7.20
2022-09-20T04:29:41.952Z,7.27
2022-09-20T04:32:27.181Z,7.23
2022-09-20T04:35:51.474Z,7.28
2022-09-20T04:38:20.048Z,7.32
2022-09-20T04:41:14.903Z,7.29
2022-09-20T04:44:12.374Z,7.32
2022-09-20T04:47:03.251Z,7.33
2022-09-20T04:49:51.007Z,7.30
2022-09-20T04:52:36.367Z,7.30
2022-09-20T04:55:33.828Z,7.28
2022-09-20T04:58:48.416Z,7.34
2022-09-20T05:01:49.658Z,7.30
2022-09-20T05:05:10.041Z,7.28
2022-09-20T05:08:01.464Z,7.34
2022-09-20T05:10:38.621Z,7.36
2022-09-20T05:13:13.895Z,7.33
2022-09-20T05:16:04.866Z,7.37
2022-09-20T05:19:04.061Z,7.45
2022-09-20T05:21:42.337Z,7.47
2022-09-20T05:24:12.615Z,7.48
2022-09-20T05:27:07.119Z,7.49
2022-09-20T05:29:55.447Z,7.56
2022-09-20T05:32:29.527Z,7.58
2022-09-20T05:35:07.524Z,7.63
2022-09-20T05:37:44.427Z,7.63
2022-09-20T05:40:34.241Z,7.74
2022-09-20T05:43:13.823Z,7.87
2022-09-20T05:45:47.285Z,7.89
2022-09-20T05:48:24.263Z,7.88
2022-09-20T05:51:26.155Z,7.97
2022-09-20T05:54:21.535Z,7.94
2022-09-20T05:57:15.903Z,8.02
2022-09-20T05:59:56.746Z,8.13
2022-09-20T06:02:59.890Z,8.32
2022-09-20T06:06:00.110Z,8.37
2022-09-20T06:08:32.358Z,8.40
2022-09-20T06:11:23.866Z,8.30
2022-09-20T06:14:02.040Z,8.26
2022-09-20T06:16:37.354Z,8.24
2022-09-20T06:19:20.738Z,8.15
2022-09-20T06:22:03.902Z,8.10
2022-09-20T06:25:01.009Z,8.04
2022-09-20T06:27:35.951Z,8.09
2022-09-20T06:30:07.214Z,8.17
2022-09-20T06:32:34.779Z,8.19
2022-09-20T06:35:03.501Z,8.22
2022-09-20T06:38:14.462Z,8.37
2022-09-20T06:41:04.884Z,8.36
2022-09-20T06:43:31.599Z,8.42
2022-09-20T06:45:58.554Z,8.43
2022-09-20T06:48:25.226Z,8.54
2022-09-20T06:50:52.358Z,8.52
2022-09-20T06:53:26.974Z,8.57
2022-09-20T06:55:53.577Z,8.57
2022-09-20T06:58:20.178Z,8.71
2022-09-20T07:00:46.803Z,8.79
2022-09-20T07:03:13.442Z,8.68
2022-09-20T07:05:40.428Z,8.64
2022-09-20T07:08:07.068Z,8.66
2022-09-20T07:10:33.910Z,8.74
2022-09-20T07:13:02.142Z,8.96
2022-09-20T07:15:32.064Z,9.12
2022-09-20T07:18:00.143Z,9.40
2022-09-20T07:20:27.666Z,9.59
2022-09-20T07:22:54.639Z,9.35
2022-09-20T07:25:21.855Z,9.29
2022-09-20T07:27:50.661Z,9.04
2022-09-20T07:30:19.106Z,9.09
2022-09-20T07:32:48.128Z,9.00
2022-09-20T07:35:14.971Z,8.84
2022-09-20T07:37:41.660Z,8.91
2022-09-20T07:40:10.632Z,9.14
2022-09-20T07:42:37.576Z,9.15
2022-09-20T07:45:04.591Z,9.55
2022-09-20T07:47:35.347Z,10.33
2022-09-20T07:50:02.949Z,10.13
2022-09-20T07:52:29.720Z,9.94
2022-09-20T07:54:56.363Z,9.88
2022-09-20T07:57:23.111Z,9.99
2022-09-20T07:59:49.714Z,10.20
2022-09-20T08:02:16.746Z,10.44
2022-09-20T08:04:43.902Z,10.30
2022-09-20T08:07:10.791Z,10.26
2022-09-20T08:09:37.216Z,10.45
2022-09-20T08:14:50.163Z,10.48
2022-09-20T08:17:16.579Z,10.68
2022-09-20T08:19:44.555Z,11.03
2022-09-20T08:22:12.583Z,11.11
2022-09-20T08:24:39.558Z,11.49
2022-09-20T08:27:06.329Z,11.40
2022-09-20T08:29:32.868Z,11.57
2022-09-20T08:32:01.399Z,11.11
2022-09-20T08:34:28.033Z,10.92
2022-09-20T08:36:56.569Z,11.03
2022-09-20T08:42:23.064Z,11.42
2022-09-20T08:44:58.141Z,11.80
2022-09-20T08:47:29.520Z,12.84
2022-09-20T08:49:57.390Z,13.22
2022-09-20T08:52:37.695Z,13.02
2022-09-20T08:55:16.987Z,12.43
2022-09-20T08:57:44.625Z,11.80
2022-09-20T09:00:18.258Z,11.42
2022-09-20T09:02:45.201Z,11.85
2022-09-20T09:05:31.511Z,12.85
2022-09-20T09:08:04.704Z,13.05
2022-09-20T09:10:42.626Z,12.77
2022-09-20T09:13:18.264Z,12.22
2022-09-20T09:15:49.177Z,11.37
2022-09-20T09:18:15.842Z,11.11
2022-09-20T09:20:47.303Z,10.80
2022-09-20T09:23:26.567Z,10.78
2022-09-20T09:25:55.243Z,10.59
2022-09-20T09:28:29.309Z,10.56
2022-09-20T09:31:12.734Z,10.53
2022-09-20T09:33:48.320Z,10.57
2022-09-20T09:36:24.589Z,10.94
2022-09-20T09:39:12.133Z,10.76
2022-09-20T09:41:38.809Z,12.06
2022-09-20T09:44:18.744Z,13.64
2022-09-20T09:46:45.186Z,13.94
2022-09-20T09:49:16.744Z,14.35
2022-09-20T09:52:13.799Z,14.99
2022-09-20T09:54:42.187Z,15.40
2022-09-20T09:57:21.408Z,15.01
2022-09-20T10:00:07.469Z,15.12
2022-09-20T10:02:48.153Z,15.16
2022-09-20T10:05:33.162Z,15.00
2022-09-20T10:08:18.555Z,14.48
2022-09-20T10:11:10.194Z,14.31
2022-09-20T10:13:55.392Z,13.24
2022-09-20T10:16:38.051Z,12.86
2022-09-20T10:19:23.139Z,12.58
2022-09-20T10:22:08.260Z,14.03
2022-09-20T10:24:51.026Z,14.16
2022-09-20T10:28:05.916Z,13.78
2022-09-20T10:31:08.763Z,13.90
2022-09-20T10:33:46.456Z,14.17
2022-09-20T10:36:25.888Z,14.15
2022-09-20T10:39:02.750Z,13.97
2022-09-20T10:42:13.015Z,14.16
2022-09-20T10:45:10.611Z,14.34
2022-09-20T10:48:14.108Z,13.87
2022-09-20T10:51:12.482Z,13.63
2022-09-20T10:54:06.153Z,13.69
2022-09-20T10:57:18.167Z,14.13
2022-09-20T11:00:18.907Z,14.59
2022-09-20T11:02:54.439Z,14.54
2022-09-20T11:05:41.761Z,13.88
2022-09-20T11:08:18.969Z,13.39
2022-09-20T11:10:57.977Z,13.48
2022-09-20T11:13:58.390Z,13.86
2022-09-20T11:16:38.385Z,14.20
2022-09-20T11:19:14.090Z,13.35
2022-09-20T11:21:49.761Z,12.80
2022-09-20T11:24:46.581Z,12.57
2022-09-20T11:27:18.774Z,12.87
2022-09-20T11:30:05.748Z,12.51
2022-09-20T11:33:00.183Z,12.33
2022-09-20T11:35:46.332Z,12.68
2022-09-20T11:38:22.156Z,13.38
2022-09-20T11:40:57.960Z,13.79
2022-09-20T11:43:31.199Z,13.70
2022-09-20T11:46:06.747Z,13.73
2022-09-20T11:48:38.663Z,13.82
2022-09-20T11:51:20.303Z,14.18
2022-09-20T11:54:25.230Z,13.81
2022-09-20T11:56:56.502Z,13.51
2022-09-20T11:59:30.399Z,13.94
2022-09-20T12:02:01.831Z,14.17
2022-09-20T12:04:35.328Z,14.39
2022-09-20T12:07:25.892Z,14.23
2022-09-20T12:10:01.683Z,14.30
2022-09-20T12:12:31.160Z,14.52
2022-09-20T12:14:59.788Z,14.50
2022-09-20T12:17:44.446Z,13.54
2022-09-20T12:20:33.782Z,12.88
2022-09-20T12:23:38.171Z,12.41
2022-09-20T12:26:14.001Z,12.27
2022-09-20T12:28:48.204Z,12.07
2022-09-20T12:31:19.219Z,12.19
2022-09-20T12:34:04.621Z,12.29
2022-09-20T12:36:35.243Z,12.96
2022-09-20T12:39:18.932Z,13.81
2022-09-20T12:41:57.731Z,14.20
2022-09-20T12:44:40.949Z,14.25
2022-09-20T12:47:10.491Z,14.34
2022-09-20T12:50:01.873Z,13.97
2022-09-20T12:52:48.974Z,13.54
2022-09-20T12:55:27.504Z,13.59
2022-09-20T12:58:11.997Z,13.02
2022-09-20T13:01:00.459Z,13.09
2022-09-20T13:03:37.695Z,13.16
2022-09-20T13:06:07.103Z,12.77
2022-09-20T13:08:48.019Z,12.72
2022-09-20T13:11:23.571Z,12.56
2022-09-20T13:14:07.015Z,12.47
2022-09-20T13:16:51.168Z,12.45
2022-09-20T13:19:30.459Z,12.95
2022-09-20T13:22:12.253Z,13.10
2022-09-20T13:24:47.720Z,12.83
2022-09-20T13:27:22.857Z,12.72
2022-09-20T13:29:49.598Z,12.46
2022-09-20T13:32:19.487Z,12.25
2022-09-20T13:34:45.931Z,12.29
2022-09-20T13:37:21.691Z,12.54
2022-09-20T13:39:54.541Z,12.67
2022-09-20T13:42:21.924Z,12.55
2022-09-20T13:44:49.226Z,12.76
2022-09-20T13:47:26.888Z,12.86
2022-09-20T13:49:53.460Z,12.81
2022-09-20T13:52:29.697Z,12.59
2022-09-20T13:54:56.641Z,12.22
2022-09-20T13:57:27.588Z,12.13
2022-09-20T13:59:55.043Z,11.91
2022-09-20T14:02:31.014Z,11.52
2022-09-20T14:05:00.738Z,11.41
2022-09-20T14:07:28.410Z,11.25
2022-09-20T14:09:56.846Z,11.34
2022-09-20T14:12:25.306Z,11.14
2022-09-20T14:14:52.906Z,11.04
2022-09-20T14:17:24.544Z,11.10
2022-09-20T14:19:54.503Z,11.12
2022-09-20T14:22:30.172Z,11.06
2022-09-20T14:25:02.627Z,10.92
2022-09-20T14:27:31.427Z,10.83
2022-09-20T14:29:58.879Z,10.60
2022-09-20T14:32:36.163Z,10.46
2022-09-20T14:35:16.672Z,10.19
2022-09-20T14:37:47.196Z,10.10
2022-09-20T14:40:16.705Z,10.24
2022-09-20T14:42:48.319Z,10.27
2022-09-20T14:45:29.798Z,10.39
2022-09-20T14:48:11.720Z,10.49
2022-09-20T14:50:45.389Z,10.14
2022-09-20T14:53:14.688Z,10.17
2022-09-20T14:55:57.478Z,10.22
2022-09-20T14:58:26.358Z,10.21
2022-09-20T15:01:02.921Z,10.31
2022-09-20T15:03:33.307Z,10.08
2022-09-20T15:06:00.096Z,9.95
2022-09-20T15:08:27.278Z,9.81
2022-09-20T15:10:53.721Z,10.00
2022-09-20T15:13:20.311Z,10.02
2022-09-20T15:15:50.883Z,9.95
2022-09-20T15:18:23.274Z,10.27
2022-09-20T15:20:50.420Z,10.31
2022-09-20T15:23:17.558Z,10.50
2022-09-20T15:25:44.264Z,10.74
2022-09-20T15:28:17.426Z,10.69
2022-09-20T15:30:45.921Z,10.62
2022-09-20T15:33:13.718Z,10.55
2022-09-20T15:35:41.994Z,10.52
2022-09-20T15:38:11.209Z,10.35
2022-09-20T15:40:42.346Z,10.19
2022-09-20T15:43:13.298Z,10.05
2022-09-20T15:45:51.962Z,9.95
2022-09-20T15:48:21.519Z,9.89
2022-09-20T15:51:07.911Z,9.86
2022-09-20T15:53:37.219Z,9.84
2022-09-20T15:56:27.460Z,9.81
2022-09-20T15:59:23.161Z,9.78
2022-09-20T16:01:50.029Z,9.76
2022-09-20T16:04:19.608Z,9.75
2022-09-20T16:06:49.480Z,9.51
2022-09-20T16:09:16.575Z,9.47
2022-09-20T16:11:43.384Z,9.48
2022-09-20T16:14:09.820Z,9.49
2022-09-20T16:16:40.360Z,9.46
2022-09-20T16:19:20.058Z,9.30
2022-09-20T16:21:53.566Z,9.31
2022-09-20T16:24:33.062Z,9.45
2022-09-20T16:27:01.518Z,9.47
2022-09-20T16:29:30.091Z,9.50
2022-09-20T16:31:57.668Z,9.40
2022-09-20T16:34:32.744Z,9.31
2022-09-20T16:37:07.978Z,9.31
2022-09-20T16:39:34.723Z,9.15
2022-09-20T16:42:05.070Z,9.07
2022-09-20T16:44:36.842Z,8.92
2022-09-20T16:47:10.693Z,8.89
2022-09-20T16:49:38.046Z,8.67
2022-09-20T16:52:06.064Z,8.76
2022-09-20T16:54:33.860Z,8.66
2022-09-20T16:57:01.058Z,8.73
2022-09-20T16:59:27.867Z,8.70
2022-09-20T17:01:55.174Z,8.66
2022-09-20T17:04:21.874Z,8.67
2022-09-20T17:06:50.374Z,8.70
2022-09-20T17:09:17.024Z,8.71
2022-09-20T17:11:49.259Z,8.66
2022-09-20T17:14:18.610Z,8.62
2022-09-20T17:16:49.130Z,8.67
2022-09-20T17:19:18.541Z,8.58
2022-09-20T17:21:49.911Z,8.62
2022-09-20T17:24:17.783Z,8.49
2022-09-20T17:26:45.342Z,8.47
2022-09-20T17:29:17.384Z,8.36
2022-09-20T17:31:48.771Z,8.26
2022-09-20T17:34:21.397Z,8.19
2022-09-20T17:36:48.603Z,8.11
2022-09-20T17:39:16.013Z,8.11
2022-09-20T17:41:45.113Z,7.98
2022-09-20T17:44:12.266Z,7.96
2022-09-20T17:46:40.845Z,7.89
2022-09-20T17:49:12.662Z,7.89
2022-09-20T17:51:42.346Z,7.87
2022-09-20T17:54:13.508Z,7.78
2022-09-20T17:56:44.977Z,7.73
2022-09-20T17:59:12.741Z,7.77
2022-09-20T18:01:40.329Z,7.72
2022-09-20T18:04:07.612Z,7.71
2022-09-20T18:06:35.544Z,7.71
2022-09-20T18:09:07.916Z,7.67
2022-09-20T18:11:37.076Z,7.74
2022-09-20T18:14:06.442Z,7.80
2022-09-20T18:16:34.036Z,7.87
2022-09-20T18:19:01.566Z,7.85
2022-09-20T18:21:30.598Z,7.85
2022-09-20T18:23:57.772Z,7.82
2022-09-20T18:26:27.109Z,7.77
2022-09-20T18:29:19.283Z,7.75
2022-09-20T18:31:47.211Z,7.70
2022-09-20T18:34:19.795Z,7.64
2022-09-20T18:36:52.613Z,7.73
2022-09-20T18:39:26.940Z,7.71
2022-09-20T18:41:55.631Z,7.71
2022-09-20T18:44:23.276Z,7.72
2022-09-20T18:46:53.396Z,7.71
2022-09-20T18:49:21.502Z,7.73
2022-09-20T18:51:48.794Z,7.65
2022-09-20T18:54:15.480Z,7.69
2022-09-20T18:56:46.880Z,7.63
2022-09-20T18:59:15.383Z,7.57
2022-09-20T19:01:53.839Z,7.53
2022-09-20T19:04:58.736Z,7.53
2022-09-20T19:07:44.611Z,7.59
2022-09-20T19:10:24.365Z,7.65
2022-09-20T19:13:22.051Z,7.65
2022-09-20T19:15:51.309Z,7.58
2022-09-20T19:18:58.992Z,7.53
2022-09-20T19:21:28.822Z,7.46
2022-09-20T19:24:16.208Z,7.41
2022-09-20T19:26:43.118Z,7.36
2022-09-20T19:29:28.062Z,7.30
2022-09-20T19:31:57.167Z,7.29
2022-09-20T19:34:26.175Z,7.28
2022-09-20T19:37:18.649Z,7.25
2022-09-20T19:39:54.323Z,7.21
2022-09-20T19:42:28.575Z,7.18
2022-09-20T19:45:31.341Z,7.05
2022-09-20T19:48:21.186Z,6.94
2022-09-20T19:50:52.871Z,6.86
2022-09-20T19:53:27.852Z,6.82
2022-09-20T19:55:59.134Z,6.72
2022-09-20T19:58:26.036Z,6.63
2022-09-20T20:00:53.474Z,6.53
2022-09-20T20:03:23.478Z,6.48
2022-09-20T20:06:07.821Z,6.47
2022-09-20T20:08:43.317Z,6.44
2022-09-20T20:11:26.341Z,6.36
2022-09-20T20:14:08.894Z,6.32
2022-09-20T20:17:02.792Z,6.29
2022-09-20T20:19:47.300Z,6.29
2022-09-20T20:22:29.260Z,6.28
2022-09-20T20:24:59.488Z,6.27
2022-09-20T20:27:28.354Z,6.24
2022-09-20T20:29:55.631Z,6.21
2022-09-20T20:32:22.815Z,6.24
2022-09-20T20:34:49.786Z,6.23
2022-09-20T20:37:18.147Z,6.19
2022-09-20T20:39:44.853Z,6.35
2022-09-20T20:42:12.821Z,6.38
2022-09-20T20:44:39.441Z,6.39
2022-09-20T20:47:06.932Z,6.39
2022-09-20T20:49:34.113Z,6.40
2022-09-20T20:52:04.622Z,6.39
2022-09-20T20:54:32.188Z,6.39
2022-09-20T20:56:59.506Z,6.34
2022-09-20T20:59:26.243Z,6.31
2022-09-20T21:01:52.932Z,6.28
2022-09-20T21:04:19.959Z,6.17
2022-09-20T21:06:46.608Z,6.05
2022-09-20T21:09:13.494Z,6.05
2022-09-20T21:11:44.546Z,6.02
2022-09-20T21:14:12.636Z,5.98
2022-09-20T21:16:45.474Z,5.92
2022-09-20T21:19:15.037Z,5.89
2022-09-20T21:21:44.011Z,5.87
2022-09-20T21:24:13.530Z,5.86
2022-09-20T21:26:40.469Z,5.80
2022-09-20T21:29:10.929Z,5.78
2022-09-20T21:31:43.620Z,5.76
2022-09-20T21:34:12.751Z,5.69
2022-09-20T21:36:41.577Z,5.65
2022-09-20T21:39:08.578Z,5.57
2022-09-20T21:41:37.397Z,5.53
2022-09-20T21:44:05.656Z,5.49
2022-09-20T21:46:36.364Z,5.42
2022-09-20T21:49:05.094Z,5.42
2022-09-20T21:51:33.061Z,5.43
2022-09-20T21:54:01.522Z,5.36
2022-09-20T21:56:31.389Z,5.36
2022-09-20T21:58:58.579Z,5.35
2022-09-20T22:01:27.489Z,5.36
2022-09-20T22:03:57.420Z,5.20
2022-09-20T22:06:26.448Z,5.31
2022-09-20T22:08:58.349Z,5.27
2022-09-20T22:11:30.291Z,5.24
2022-09-20T22:13:57.369Z,5.24
2022-09-20T22:16:29.542Z,5.23
2022-09-20T22:18:56.078Z,5.23
2022-09-20T22:21:27.874Z,5.29
2022-09-20T22:24:03.275Z,5.28
2022-09-20T22:26:36.520Z,5.18
2022-09-20T22:29:04.618Z,5.18
2022-09-20T22:31:33.603Z,5.13
2022-09-20T22:34:03.145Z,5.10
2022-09-20T22:36:35.656Z,5.05
2022-09-20T22:39:03.426Z,5.03
2022-09-20T22:41:30.307Z,4.94
2022-09-20T22:43:56.951Z,4.96
2022-09-20T22:46:26.308Z,4.91
2022-09-20T22:48:53.035Z,4.88
2022-09-20T22:51:24.940Z,4.95
2022-09-20T22:53:52.681Z,4.95
2022-09-20T22:56:24.936Z,4.94
2022-09-20T22:58:53.860Z,5.05
2022-09-20T23:01:23.020Z,5.10
2022-09-20T23:04:01.220Z,5.10
2022-09-20T23:06:31.589Z,5.09
2022-09-20T23:09:00.875Z,5.08
2022-09-20T23:11:28.378Z,5.07
2022-09-20T23:13:56.888Z,5.14
2022-09-20T23:16:27.707Z,5.20
2022-09-20T23:18:55.292Z,5.23
2022-09-20T23:21:22.960Z,5.25
2022-09-20T23:23:54.426Z,5.26
2022-09-20T23:26:21.899Z,5.28
2022-09-20T23:28:54.351Z,5.30
2022-09-20T23:31:20.804Z,5.26
2022-09-20T23:33:48.905Z,5.26
2022-09-20T23:36:16.319Z,5.30
2022-09-20T23:38:42.978Z,5.29
2022-09-20T23:41:13.450Z,5.12
2022-09-20T23:43:40.854Z,5.18
2022-09-20T23:46:09.176Z,5.14
2022-09-20T23:48:36.481Z,5.17
2022-09-20T23:51:04.547Z,5.18
2022-09-20T23:53:31.734Z,5.14
2022-09-20T23:55:58.461Z,5.15
2022-09-20T23:58:25.215Z,5.14
